sensor_id;sensor_type;location;lat;lon;timestamp;P1;durP1;ratioP1;P2;durP2;ratioP2
16468;SDS011;8345;50.902;6.956;2024-02-26T00:00:58;2.07;;;1.50;;
16468;SDS011;8345;50.902;6.956;2024-02-26T00:03:25;2.00;;;1.30;;
16468;SDS011;8345;50.902;6.956;2024-02-26T00:05:52;1.70;;;1.50;;
16468;SDS011;8345;50.902;6.956;2024-02-26T00:08:22;1.53;;;1.40;;
16468;SDS011;8345;50.902;6.956;2024-02-26T00:10:49;2.97;;;1.60;;
16468;SDS011;8345;50.902;6.956;2024-02-26T00:13:16;1.70;;;1.60;;
16468;SDS011;8345;50.902;6.956;2024-02-26T00:15:45;1.57;;;1.20;;
16468;SDS011;8345;50.902;6.956;2024-02-26T00:18:12;1.53;;;1.30;;
16468;SDS011;8345;50.902;6.956;2024-02-26T00:20:39;2.97;;;1.50;;
16468;SDS011;8345;50.902;6.956;2024-02-26T00:23:08;1.70;;;1.40;;
16468;SDS011;8345;50.902;6.956;2024-02-26T00:25:36;1.10;;;0.93;;
16468;SDS011;8345;50.902;6.956;2024-02-26T00:28:04;1.47;;;1.13;;
16468;SDS011;8345;50.902;6.956;2024-02-26T00:30:31;1.77;;;1.40;;
16468;SDS011;8345;50.902;6.956;2024-02-26T00:32:58;1.47;;;1.20;;
16468;SDS011;8345;50.902;6.956;2024-02-26T00:35:26;2.13;;;1.30;;
16468;SDS011;8345;50.902;6.956;2024-02-26T00:37:53;1.23;;;1.00;;
16468;SDS011;8345;50.902;6.956;2024-02-26T00:40:20;1.60;;;1.10;;
16468;SDS011;8345;50.902;6.956;2024-02-26T00:42:48;1.53;;;0.90;;
16468;SDS011;8345;50.902;6.956;2024-02-26T00:45:16;1.53;;;0.90;;
16468;SDS011;8345;50.902;6.956;2024-02-26T00:47:43;1.30;;;0.93;;
16468;SDS011;8345;50.902;6.956;2024-02-26T00:50:12;1.10;;;0.90;;
16468;SDS011;8345;50.902;6.956;2024-02-26T00:52:39;0.80;;;0.70;;
16468;SDS011;8345;50.902;6.956;2024-02-26T00:55:07;1.10;;;0.90;;
16468;SDS011;8345;50.902;6.956;2024-02-26T00:57:34;1.07;;;0.97;;
16468;SDS011;8345;50.902;6.956;2024-02-26T01:00:03;1.57;;;1.00;;
16468;SDS011;8345;50.902;6.956;2024-02-26T01:02:30;1.20;;;0.97;;
16468;SDS011;8345;50.902;6.956;2024-02-26T01:04:57;1.00;;;0.90;;
16468;SDS011;8345;50.902;6.956;2024-02-26T01:07:24;1.77;;;0.90;;
16468;SDS011;8345;50.902;6.956;2024-02-26T01:09:51;1.83;;;0.80;;
16468;SDS011;8345;50.902;6.956;2024-02-26T01:12:18;0.97;;;0.80;;
16468;SDS011;8345;50.902;6.956;2024-02-26T01:14:46;1.97;;;1.00;;
16468;SDS011;8345;50.902;6.956;2024-02-26T01:17:14;1.00;;;0.90;;
16468;SDS011;8345;50.902;6.956;2024-02-26T01:19:41;1.10;;;1.00;;
16468;SDS011;8345;50.902;6.956;2024-02-26T01:22:09;1.27;;;0.80;;
16468;SDS011;8345;50.902;6.956;2024-02-26T01:24:36;1.00;;;0.90;;
16468;SDS011;8345;50.902;6.956;2024-02-26T01:27:03;1.10;;;1.00;;
16468;SDS011;8345;50.902;6.956;2024-02-26T01:29:32;0.83;;;0.83;;
16468;SDS011;8345;50.902;6.956;2024-02-26T01:32:00;2.30;;;0.97;;
16468;SDS011;8345;50.902;6.956;2024-02-26T01:34:29;1.30;;;1.07;;
16468;SDS011;8345;50.902;6.956;2024-02-26T01:36:56;1.30;;;0.90;;
16468;SDS011;8345;50.902;6.956;2024-02-26T01:39:23;1.03;;;0.97;;
16468;SDS011;8345;50.902;6.956;2024-02-26T01:41:51;1.37;;;0.90;;
16468;SDS011;8345;50.902;6.956;2024-02-26T01:44:18;0.70;;;0.70;;
16468;SDS011;8345;50.902;6.956;2024-02-26T01:46:46;1.70;;;0.80;;
16468;SDS011;8345;50.902;6.956;2024-02-26T01:49:13;0.70;;;0.70;;
16468;SDS011;8345;50.902;6.956;2024-02-26T01:51:43;0.90;;;0.70;;
16468;SDS011;8345;50.902;6.956;2024-02-26T01:54:10;0.70;;;0.70;;
16468;SDS011;8345;50.902;6.956;2024-02-26T01:56:37;0.90;;;0.80;;
16468;SDS011;8345;50.902;6.956;2024-02-26T01:59:05;0.80;;;0.80;;
16468;SDS011;8345;50.902;6.956;2024-02-26T02:01:35;1.77;;;0.83;;
16468;SDS011;8345;50.902;6.956;2024-02-26T02:04:02;0.77;;;0.77;;
16468;SDS011;8345;50.902;6.956;2024-02-26T02:06:29;0.70;;;0.70;;
16468;SDS011;8345;50.902;6.956;2024-02-26T02:08:58;0.70;;;0.70;;
16468;SDS011;8345;50.902;6.956;2024-02-26T02:11:31;1.13;;;0.80;;
16468;SDS011;8345;50.902;6.956;2024-02-26T02:13:58;1.07;;;0.97;;
16468;SDS011;8345;50.902;6.956;2024-02-26T02:16:25;1.70;;;1.07;;
16468;SDS011;8345;50.902;6.956;2024-02-26T02:18:53;1.27;;;0.90;;
16468;SDS011;8345;50.902;6.956;2024-02-26T02:21:21;1.27;;;0.83;;
16468;SDS011;8345;50.902;6.956;2024-02-26T02:23:48;1.23;;;0.73;;
16468;SDS011;8345;50.902;6.956;2024-02-26T02:26:15;2.63;;;0.93;;
16468;SDS011;8345;50.902;6.956;2024-02-26T02:28:43;1.20;;;0.90;;
16468;SDS011;8345;50.902;6.956;2024-02-26T02:31:11;0.70;;;0.70;;
16468;SDS011;8345;50.902;6.956;2024-02-26T02:33:38;2.23;;;0.80;;
16468;SDS011;8345;50.902;6.956;2024-02-26T02:36:05;0.70;;;0.70;;
16468;SDS011;8345;50.902;6.956;2024-02-26T02:38:36;1.00;;;0.80;;
16468;SDS011;8345;50.902;6.956;2024-02-26T02:41:03;1.07;;;0.90;;
16468;SDS011;8345;50.902;6.956;2024-02-26T02:43:31;1.60;;;0.90;;
16468;SDS011;8345;50.902;6.956;2024-02-26T02:45:58;1.37;;;0.97;;
16468;SDS011;8345;50.902;6.956;2024-02-26T02:48:25;0.70;;;0.70;;
16468;SDS011;8345;50.902;6.956;2024-02-26T02:50:52;1.57;;;0.80;;
16468;SDS011;8345;50.902;6.956;2024-02-26T02:53:19;0.87;;;0.80;;
16468;SDS011;8345;50.902;6.956;2024-02-26T02:55:48;1.43;;;1.00;;
16468;SDS011;8345;50.902;6.956;2024-02-26T02:58:15;1.20;;;0.90;;
16468;SDS011;8345;50.902;6.956;2024-02-26T03:00:42;1.30;;;1.00;;
16468;SDS011;8345;50.902;6.956;2024-02-26T03:03:10;1.60;;;1.30;;
16468;SDS011;8345;50.902;6.956;2024-02-26T03:05:37;1.30;;;0.80;;
16468;SDS011;8345;50.902;6.956;2024-02-26T03:08:04;1.40;;;0.97;;
16468;SDS011;8345;50.902;6.956;2024-02-26T03:10:31;1.90;;;0.90;;
16468;SDS011;8345;50.902;6.956;2024-02-26T03:13:00;1.00;;;0.87;;
16468;SDS011;8345;50.902;6.956;2024-02-26T03:15:27;2.27;;;0.77;;
16468;SDS011;8345;50.902;6.956;2024-02-26T03:17:55;1.13;;;0.97;;
16468;SDS011;8345;50.902;6.956;2024-02-26T03:20:22;1.20;;;0.90;;
16468;SDS011;8345;50.902;6.956;2024-02-26T03:22:49;0.80;;;0.80;;
16468;SDS011;8345;50.902;6.956;2024-02-26T03:25:16;0.73;;;0.73;;
16468;SDS011;8345;50.902;6.956;2024-02-26T03:27:43;2.13;;;0.90;;
16468;SDS011;8345;50.902;6.956;2024-02-26T03:30:12;1.03;;;0.70;;
16468;SDS011;8345;50.902;6.956;2024-02-26T03:32:39;1.87;;;1.20;;
16468;SDS011;8345;50.902;6.956;2024-02-26T03:35:07;1.00;;;0.90;;
16468;SDS011;8345;50.902;6.956;2024-02-26T03:37:34;0.90;;;0.80;;
16468;SDS011;8345;50.902;6.956;2024-02-26T03:40:01;1.20;;;1.07;;
16468;SDS011;8345;50.902;6.956;2024-02-26T03:42:28;2.13;;;1.00;;
16468;SDS011;8345;50.902;6.956;2024-02-26T03:44:54;1.17;;;0.93;;
16468;SDS011;8345;50.902;6.956;2024-02-26T03:47:23;1.17;;;1.00;;
16468;SDS011;8345;50.902;6.956;2024-02-26T03:49:50;1.43;;;0.93;;
16468;SDS011;8345;50.902;6.956;2024-02-26T03:52:17;1.63;;;1.00;;
16468;SDS011;8345;50.902;6.956;2024-02-26T03:54:45;1.87;;;0.80;;
16468;SDS011;8345;50.902;6.956;2024-02-26T03:57:12;1.37;;;0.80;;
16468;SDS011;8345;50.902;6.956;2024-02-26T03:59:39;1.23;;;0.90;;
16468;SDS011;8345;50.902;6.956;2024-02-26T04:02:06;1.87;;;0.90;;
16468;SDS011;8345;50.902;6.956;2024-02-26T04:04:36;1.37;;;0.93;;
16468;SDS011;8345;50.902;6.956;2024-02-26T04:07:03;1.10;;;1.00;;
16468;SDS011;8345;50.902;6.956;2024-02-26T04:09:31;0.80;;;0.80;;
16468;SDS011;8345;50.902;6.956;2024-02-26T04:11:58;1.13;;;0.80;;
16468;SDS011;8345;50.902;6.956;2024-02-26T04:14:26;1.73;;;0.80;;
16468;SDS011;8345;50.902;6.956;2024-02-26T04:16:53;1.20;;;0.80;;
16468;SDS011;8345;50.902;6.956;2024-02-26T04:19:20;2.03;;;0.83;;
16468;SDS011;8345;50.902;6.956;2024-02-26T04:21:49;1.70;;;0.93;;
16468;SDS011;8345;50.902;6.956;2024-02-26T04:24:16;1.03;;;0.90;;
16468;SDS011;8345;50.902;6.956;2024-02-26T04:26:43;1.43;;;1.10;;
16468;SDS011;8345;50.902;6.956;2024-02-26T04:29:10;1.80;;;0.80;;
16468;SDS011;8345;50.902;6.956;2024-02-26T04:31:37;1.53;;;1.00;;
16468;SDS011;8345;50.902;6.956;2024-02-26T04:34:05;1.90;;;1.00;;
16468;SDS011;8345;50.902;6.956;2024-02-26T04:36:32;1.50;;;0.97;;
16468;SDS011;8345;50.902;6.956;2024-02-26T04:39:00;1.13;;;0.90;;
16468;SDS011;8345;50.902;6.956;2024-02-26T04:41:28;1.50;;;0.90;;
16468;SDS011;8345;50.902;6.956;2024-02-26T04:43:56;1.57;;;0.90;;
16468;SDS011;8345;50.902;6.956;2024-02-26T04:46:23;1.40;;;1.10;;
16468;SDS011;8345;50.902;6.956;2024-02-26T04:48:50;1.33;;;0.90;;
16468;SDS011;8345;50.902;6.956;2024-02-26T04:51:17;1.23;;;1.07;;
16468;SDS011;8345;50.902;6.956;2024-02-26T04:53:45;1.37;;;1.13;;
16468;SDS011;8345;50.902;6.956;2024-02-26T04:56:13;1.20;;;0.83;;
16468;SDS011;8345;50.902;6.956;2024-02-26T04:58:41;1.30;;;1.17;;
16468;SDS011;8345;50.902;6.956;2024-02-26T05:01:08;1.77;;;1.10;;
16468;SDS011;8345;50.902;6.956;2024-02-26T05:03:36;2.30;;;0.90;;
16468;SDS011;8345;50.902;6.956;2024-02-26T05:06:03;1.60;;;1.03;;
16468;SDS011;8345;50.902;6.956;2024-02-26T05:08:31;1.57;;;1.00;;
16468;SDS011;8345;50.902;6.956;2024-02-26T05:11:00;1.20;;;1.10;;
16468;SDS011;8345;50.902;6.956;2024-02-26T05:13:32;1.17;;;1.00;;
16468;SDS011;8345;50.902;6.956;2024-02-26T05:15:59;2.47;;;1.00;;
16468;SDS011;8345;50.902;6.956;2024-02-26T05:18:27;2.17;;;1.17;;
16468;SDS011;8345;50.902;6.956;2024-02-26T05:20:55;1.47;;;1.10;;
16468;SDS011;8345;50.902;6.956;2024-02-26T05:23:22;1.73;;;1.10;;
16468;SDS011;8345;50.902;6.956;2024-02-26T05:25:49;2.03;;;1.07;;
16468;SDS011;8345;50.902;6.956;2024-02-26T05:28:16;1.70;;;1.13;;
16468;SDS011;8345;50.902;6.956;2024-02-26T05:30:47;2.43;;;1.53;;
16468;SDS011;8345;50.902;6.956;2024-02-26T05:33:14;1.30;;;1.20;;
16468;SDS011;8345;50.902;6.956;2024-02-26T05:35:41;2.23;;;1.37;;
16468;SDS011;8345;50.902;6.956;2024-02-26T05:38:09;1.53;;;1.30;;
16468;SDS011;8345;50.902;6.956;2024-02-26T05:40:36;2.10;;;1.10;;
16468;SDS011;8345;50.902;6.956;2024-02-26T05:43:03;1.97;;;1.13;;
16468;SDS011;8345;50.902;6.956;2024-02-26T05:45:31;2.03;;;1.27;;
16468;SDS011;8345;50.902;6.956;2024-02-26T05:48:00;2.67;;;1.30;;
16468;SDS011;8345;50.902;6.956;2024-02-26T05:50:28;1.50;;;1.40;;
16468;SDS011;8345;50.902;6.956;2024-02-26T05:52:56;2.50;;;1.70;;
16468;SDS011;8345;50.902;6.956;2024-02-26T05:55:24;1.70;;;1.47;;
16468;SDS011;8345;50.902;6.956;2024-02-26T05:57:51;3.03;;;1.63;;
16468;SDS011;8345;50.902;6.956;2024-02-26T06:00:18;2.03;;;1.40;;
16468;SDS011;8345;50.902;6.956;2024-02-26T06:02:46;2.47;;;1.40;;
16468;SDS011;8345;50.902;6.956;2024-02-26T06:05:14;1.93;;;1.47;;
16468;SDS011;8345;50.902;6.956;2024-02-26T06:07:42;2.77;;;1.70;;
16468;SDS011;8345;50.902;6.956;2024-02-26T06:10:09;1.80;;;1.50;;
16468;SDS011;8345;50.902;6.956;2024-02-26T06:12:38;3.00;;;1.40;;
16468;SDS011;8345;50.902;6.956;2024-02-26T06:15:06;1.40;;;1.30;;
16468;SDS011;8345;50.902;6.956;2024-02-26T06:17:34;2.47;;;1.53;;
16468;SDS011;8345;50.902;6.956;2024-02-26T06:20:01;1.97;;;1.20;;
16468;SDS011;8345;50.902;6.956;2024-02-26T06:22:31;2.13;;;1.43;;
16468;SDS011;8345;50.902;6.956;2024-02-26T06:24:58;1.70;;;1.33;;
16468;SDS011;8345;50.902;6.956;2024-02-26T06:27:25;2.80;;;1.60;;
16468;SDS011;8345;50.902;6.956;2024-02-26T06:29:52;2.27;;;1.60;;
16468;SDS011;8345;50.902;6.956;2024-02-26T06:32:19;1.87;;;1.40;;
16468;SDS011;8345;50.902;6.956;2024-02-26T06:34:48;2.63;;;1.50;;
16468;SDS011;8345;50.902;6.956;2024-02-26T06:37:15;1.77;;;1.50;;
16468;SDS011;8345;50.902;6.956;2024-02-26T06:39:43;2.00;;;1.70;;
16468;SDS011;8345;50.902;6.956;2024-02-26T06:42:11;1.57;;;1.33;;
16468;SDS011;8345;50.902;6.956;2024-02-26T06:44:38;2.77;;;1.60;;
16468;SDS011;8345;50.902;6.956;2024-02-26T06:47:05;2.60;;;1.40;;
16468;SDS011;8345;50.902;6.956;2024-02-26T06:49:32;3.27;;;1.33;;
16468;SDS011;8345;50.902;6.956;2024-02-26T06:52:00;3.00;;;1.60;;
16468;SDS011;8345;50.902;6.956;2024-02-26T06:54:27;1.83;;;1.50;;
16468;SDS011;8345;50.902;6.956;2024-02-26T06:56:56;2.07;;;1.37;;
16468;SDS011;8345;50.902;6.956;2024-02-26T06:59:23;2.77;;;1.87;;
16468;SDS011;8345;50.902;6.956;2024-02-26T07:01:50;2.10;;;1.63;;
16468;SDS011;8345;50.902;6.956;2024-02-26T07:04:17;4.40;;;1.63;;
16468;SDS011;8345;50.902;6.956;2024-02-26T07:06:44;2.10;;;1.90;;
16468;SDS011;8345;50.902;6.956;2024-02-26T07:09:12;1.70;;;1.60;;
16468;SDS011;8345;50.902;6.956;2024-02-26T07:11:39;2.00;;;1.80;;
16468;SDS011;8345;50.902;6.956;2024-02-26T07:14:10;2.53;;;1.73;;
16468;SDS011;8345;50.902;6.956;2024-02-26T07:16:37;2.23;;;1.90;;
16468;SDS011;8345;50.902;6.956;2024-02-26T07:19:04;2.43;;;1.90;;
16468;SDS011;8345;50.902;6.956;2024-02-26T07:21:32;2.33;;;1.83;;
16468;SDS011;8345;50.902;6.956;2024-02-26T07:23:59;2.00;;;1.80;;
16468;SDS011;8345;50.902;6.956;2024-02-26T07:26:26;2.13;;;1.67;;
16468;SDS011;8345;50.902;6.956;2024-02-26T07:28:56;2.10;;;1.70;;
16468;SDS011;8345;50.902;6.956;2024-02-26T07:31:24;2.33;;;1.83;;
16468;SDS011;8345;50.902;6.956;2024-02-26T07:33:52;2.63;;;2.00;;
16468;SDS011;8345;50.902;6.956;2024-02-26T07:36:19;4.23;;;2.00;;
16468;SDS011;8345;50.902;6.956;2024-02-26T07:38:46;2.03;;;1.70;;
16468;SDS011;8345;50.902;6.956;2024-02-26T07:41:13;2.47;;;2.00;;
16468;SDS011;8345;50.902;6.956;2024-02-26T07:43:40;3.03;;;1.73;;
16468;SDS011;8345;50.902;6.956;2024-02-26T07:46:08;3.40;;;2.07;;
16468;SDS011;8345;50.902;6.956;2024-02-26T07:48:39;2.73;;;1.70;;
16468;SDS011;8345;50.902;6.956;2024-02-26T07:51:07;3.07;;;2.07;;
16468;SDS011;8345;50.902;6.956;2024-02-26T07:53:34;2.30;;;1.83;;
16468;SDS011;8345;50.902;6.956;2024-02-26T07:56:01;4.30;;;2.17;;
16468;SDS011;8345;50.902;6.956;2024-02-26T07:58:28;3.93;;;2.17;;
16468;SDS011;8345;50.902;6.956;2024-02-26T08:00:55;3.13;;;2.27;;
16468;SDS011;8345;50.902;6.956;2024-02-26T08:03:22;2.50;;;2.20;;
16468;SDS011;8345;50.902;6.956;2024-02-26T08:05:51;2.50;;;1.77;;
16468;SDS011;8345;50.902;6.956;2024-02-26T08:08:19;2.33;;;1.80;;
16468;SDS011;8345;50.902;6.956;2024-02-26T08:10:46;2.10;;;1.90;;
16468;SDS011;8345;50.902;6.956;2024-02-26T08:13:13;3.37;;;2.10;;
16468;SDS011;8345;50.902;6.956;2024-02-26T08:15:40;3.17;;;2.00;;
16468;SDS011;8345;50.902;6.956;2024-02-26T08:18:07;2.73;;;1.80;;
16468;SDS011;8345;50.902;6.956;2024-02-26T08:20:34;2.43;;;1.90;;
16468;SDS011;8345;50.902;6.956;2024-02-26T08:23:03;3.10;;;2.00;;
16468;SDS011;8345;50.902;6.956;2024-02-26T08:25:31;2.80;;;2.10;;
16468;SDS011;8345;50.902;6.956;2024-02-26T08:27:58;2.20;;;1.70;;
16468;SDS011;8345;50.902;6.956;2024-02-26T08:30:25;2.77;;;1.73;;
16468;SDS011;8345;50.902;6.956;2024-02-26T08:32:53;3.37;;;2.00;;
16468;SDS011;8345;50.902;6.956;2024-02-26T08:35:20;2.50;;;1.77;;
16468;SDS011;8345;50.902;6.956;2024-02-26T08:37:47;3.77;;;1.93;;
16468;SDS011;8345;50.902;6.956;2024-02-26T08:40:16;2.37;;;1.70;;
16468;SDS011;8345;50.902;6.956;2024-02-26T08:42:44;3.80;;;2.07;;
16468;SDS011;8345;50.902;6.956;2024-02-26T08:45:11;2.00;;;1.90;;
16468;SDS011;8345;50.902;6.956;2024-02-26T08:47:39;3.60;;;2.20;;
16468;SDS011;8345;50.902;6.956;2024-02-26T08:50:06;4.40;;;2.00;;
16468;SDS011;8345;50.902;6.956;2024-02-26T08:52:34;2.93;;;2.20;;
16468;SDS011;8345;50.902;6.956;2024-02-26T08:55:01;3.37;;;2.10;;
16468;SDS011;8345;50.902;6.956;2024-02-26T08:57:31;3.53;;;1.90;;
16468;SDS011;8345;50.902;6.956;2024-02-26T08:59:59;2.70;;;2.20;;
16468;SDS011;8345;50.902;6.956;2024-02-26T09:02:26;3.07;;;1.80;;
16468;SDS011;8345;50.902;6.956;2024-02-26T09:04:53;2.57;;;1.80;;
16468;SDS011;8345;50.902;6.956;2024-02-26T09:07:20;3.27;;;2.07;;
16468;SDS011;8345;50.902;6.956;2024-02-26T09:09:48;1.87;;;1.63;;
16468;SDS011;8345;50.902;6.956;2024-02-26T09:12:16;3.40;;;2.30;;
16468;SDS011;8345;50.902;6.956;2024-02-26T09:14:44;2.67;;;2.10;;
16468;SDS011;8345;50.902;6.956;2024-02-26T09:17:11;4.40;;;2.90;;
16468;SDS011;8345;50.902;6.956;2024-02-26T09:19:39;2.63;;;2.30;;
16468;SDS011;8345;50.902;6.956;2024-02-26T09:22:07;2.67;;;2.40;;
16468;SDS011;8345;50.902;6.956;2024-02-26T09:24:34;2.60;;;2.20;;
16468;SDS011;8345;50.902;6.956;2024-02-26T09:27:01;3.73;;;2.20;;
16468;SDS011;8345;50.902;6.956;2024-02-26T09:29:28;2.20;;;1.60;;
16468;SDS011;8345;50.902;6.956;2024-02-26T09:31:57;2.43;;;2.00;;
16468;SDS011;8345;50.902;6.956;2024-02-26T09:34:24;3.27;;;2.20;;
16468;SDS011;8345;50.902;6.956;2024-02-26T09:36:52;3.60;;;2.13;;
16468;SDS011;8345;50.902;6.956;2024-02-26T09:39:19;2.90;;;2.00;;
16468;SDS011;8345;50.902;6.956;2024-02-26T09:41:47;2.67;;;2.00;;
16468;SDS011;8345;50.902;6.956;2024-02-26T09:44:14;3.53;;;1.53;;
16468;SDS011;8345;50.902;6.956;2024-02-26T09:46:42;2.77;;;2.00;;
16468;SDS011;8345;50.902;6.956;2024-02-26T09:49:11;3.90;;;2.20;;
16468;SDS011;8345;50.902;6.956;2024-02-26T09:51:39;2.10;;;1.80;;
16468;SDS011;8345;50.902;6.956;2024-02-26T09:54:07;4.03;;;2.00;;
16468;SDS011;8345;50.902;6.956;2024-02-26T09:56:34;2.07;;;1.83;;
16468;SDS011;8345;50.902;6.956;2024-02-26T09:59:02;3.33;;;1.90;;
16468;SDS011;8345;50.902;6.956;2024-02-26T10:01:30;1.97;;;1.77;;
16468;SDS011;8345;50.902;6.956;2024-02-26T10:03:59;2.37;;;1.87;;
16468;SDS011;8345;50.902;6.956;2024-02-26T10:06:29;4.20;;;2.57;;
16468;SDS011;8345;50.902;6.956;2024-02-26T10:08:56;2.77;;;2.30;;
16468;SDS011;8345;50.902;6.956;2024-02-26T10:11:24;2.73;;;2.10;;
16468;SDS011;8345;50.902;6.956;2024-02-26T10:13:51;2.40;;;2.20;;
16468;SDS011;8345;50.902;6.956;2024-02-26T10:16:18;3.07;;;2.10;;
16468;SDS011;8345;50.902;6.956;2024-02-26T10:18:46;2.90;;;2.43;;
16468;SDS011;8345;50.902;6.956;2024-02-26T10:21:14;2.97;;;2.30;;
16468;SDS011;8345;50.902;6.956;2024-02-26T10:23:44;2.33;;;1.90;;
16468;SDS011;8345;50.902;6.956;2024-02-26T10:26:12;2.33;;;2.00;;
16468;SDS011;8345;50.902;6.956;2024-02-26T10:28:40;4.20;;;2.60;;
16468;SDS011;8345;50.902;6.956;2024-02-26T10:31:08;3.47;;;2.37;;
16468;SDS011;8345;50.902;6.956;2024-02-26T10:33:36;2.97;;;2.23;;
16468;SDS011;8345;50.902;6.956;2024-02-26T10:36:03;2.97;;;2.27;;
16468;SDS011;8345;50.902;6.956;2024-02-26T10:38:31;2.53;;;2.20;;
16468;SDS011;8345;50.902;6.956;2024-02-26T10:41:00;2.83;;;2.20;;
16468;SDS011;8345;50.902;6.956;2024-02-26T10:43:28;4.20;;;2.27;;
16468;SDS011;8345;50.902;6.956;2024-02-26T10:45:56;4.00;;;2.60;;
16468;SDS011;8345;50.902;6.956;2024-02-26T10:48:23;3.00;;;2.57;;
16468;SDS011;8345;50.902;6.956;2024-02-26T10:50:50;2.63;;;2.30;;
16468;SDS011;8345;50.902;6.956;2024-02-26T10:53:19;2.87;;;2.33;;
16468;SDS011;8345;50.902;6.956;2024-02-26T10:55:48;2.70;;;2.40;;
16468;SDS011;8345;50.902;6.956;2024-02-26T10:58:17;2.77;;;2.40;;
16468;SDS011;8345;50.902;6.956;2024-02-26T11:00:45;2.70;;;2.30;;
16468;SDS011;8345;50.902;6.956;2024-02-26T11:03:13;2.80;;;2.50;;
16468;SDS011;8345;50.902;6.956;2024-02-26T11:05:42;3.03;;;2.23;;
16468;SDS011;8345;50.902;6.956;2024-02-26T11:08:11;4.60;;;2.30;;
16468;SDS011;8345;50.902;6.956;2024-02-26T11:10:38;2.33;;;2.00;;
16468;SDS011;8345;50.902;6.956;2024-02-26T11:13:07;3.20;;;2.17;;
16468;SDS011;8345;50.902;6.956;2024-02-26T11:15:37;3.80;;;2.50;;
16468;SDS011;8345;50.902;6.956;2024-02-26T11:18:05;2.73;;;2.23;;
16468;SDS011;8345;50.902;6.956;2024-02-26T11:20:34;3.07;;;2.30;;
16468;SDS011;8345;50.902;6.956;2024-02-26T11:23:02;4.63;;;2.10;;
16468;SDS011;8345;50.902;6.956;2024-02-26T11:25:29;2.57;;;2.37;;
16468;SDS011;8345;50.902;6.956;2024-02-26T11:27:58;4.77;;;2.50;;
16468;SDS011;8345;50.902;6.956;2024-02-26T11:30:27;3.60;;;2.77;;
16468;SDS011;8345;50.902;6.956;2024-02-26T11:32:57;2.83;;;2.43;;
16468;SDS011;8345;50.902;6.956;2024-02-26T11:35:26;3.30;;;2.27;;
16468;SDS011;8345;50.902;6.956;2024-02-26T11:37:55;2.30;;;2.10;;
16468;SDS011;8345;50.902;6.956;2024-02-26T11:40:22;3.60;;;2.60;;
16468;SDS011;8345;50.902;6.956;2024-02-26T11:42:50;3.43;;;2.40;;
16468;SDS011;8345;50.902;6.956;2024-02-26T11:48:06;3.50;;;2.80;;
16468;SDS011;8345;50.902;6.956;2024-02-26T11:50:38;3.10;;;2.50;;
16468;SDS011;8345;50.902;6.956;2024-02-26T11:53:22;3.67;;;3.20;;
16468;SDS011;8345;50.902;6.956;2024-02-26T11:58:38;4.70;;;2.60;;
16468;SDS011;8345;50.902;6.956;2024-02-26T12:01:05;3.50;;;2.43;;
16468;SDS011;8345;50.902;6.956;2024-02-26T12:03:34;2.40;;;2.20;;
16468;SDS011;8345;50.902;6.956;2024-02-26T12:06:02;3.33;;;2.70;;
16468;SDS011;8345;50.902;6.956;2024-02-26T12:08:30;4.30;;;2.90;;
16468;SDS011;8345;50.902;6.956;2024-02-26T12:11:01;5.13;;;2.77;;
16468;SDS011;8345;50.902;6.956;2024-02-26T12:13:29;4.07;;;3.03;;
16468;SDS011;8345;50.902;6.956;2024-02-26T12:15:57;3.50;;;2.90;;
16468;SDS011;8345;50.902;6.956;2024-02-26T12:18:24;3.57;;;2.70;;
16468;SDS011;8345;50.902;6.956;2024-02-26T12:20:59;3.83;;;2.93;;
16468;SDS011;8345;50.902;6.956;2024-02-26T12:23:27;2.90;;;2.70;;
16468;SDS011;8345;50.902;6.956;2024-02-26T12:25:58;3.10;;;2.80;;
16468;SDS011;8345;50.902;6.956;2024-02-26T12:28:27;3.57;;;2.40;;
16468;SDS011;8345;50.902;6.956;2024-02-26T12:30:54;4.03;;;3.20;;
16468;SDS011;8345;50.902;6.956;2024-02-26T12:33:24;2.67;;;2.40;;
16468;SDS011;8345;50.902;6.956;2024-02-26T12:35:52;3.50;;;2.60;;
16468;SDS011;8345;50.902;6.956;2024-02-26T12:38:21;3.70;;;2.83;;
16468;SDS011;8345;50.902;6.956;2024-02-26T12:40:49;4.37;;;3.00;;
16468;SDS011;8345;50.902;6.956;2024-02-26T12:43:16;3.03;;;2.70;;
16468;SDS011;8345;50.902;6.956;2024-02-26T12:45:43;3.10;;;2.27;;
16468;SDS011;8345;50.902;6.956;2024-02-26T12:48:12;3.57;;;2.97;;
16468;SDS011;8345;50.902;6.956;2024-02-26T12:50:39;3.17;;;2.67;;
16468;SDS011;8345;50.902;6.956;2024-02-26T12:53:07;3.20;;;2.60;;
16468;SDS011;8345;50.902;6.956;2024-02-26T12:55:35;3.83;;;2.97;;
16468;SDS011;8345;50.902;6.956;2024-02-26T12:58:04;3.20;;;2.90;;
16468;SDS011;8345;50.902;6.956;2024-02-26T13:00:32;2.67;;;2.43;;
16468;SDS011;8345;50.902;6.956;2024-02-26T13:02:59;3.83;;;3.20;;
16468;SDS011;8345;50.902;6.956;2024-02-26T13:05:26;4.13;;;3.30;;
16468;SDS011;8345;50.902;6.956;2024-02-26T13:07:54;3.27;;;2.97;;
16468;SDS011;8345;50.902;6.956;2024-02-26T13:10:22;3.27;;;2.97;;
16468;SDS011;8345;50.902;6.956;2024-02-26T13:12:51;4.70;;;3.43;;
16468;SDS011;8345;50.902;6.956;2024-02-26T13:15:19;4.63;;;3.07;;
16468;SDS011;8345;50.902;6.956;2024-02-26T13:17:47;4.30;;;3.30;;
16468;SDS011;8345;50.902;6.956;2024-02-26T13:20:24;3.13;;;2.90;;
16468;SDS011;8345;50.902;6.956;2024-02-26T13:22:59;5.13;;;2.90;;
16468;SDS011;8345;50.902;6.956;2024-02-26T13:25:26;4.43;;;3.20;;
16468;SDS011;8345;50.902;6.956;2024-02-26T13:28:05;3.93;;;3.27;;
16468;SDS011;8345;50.902;6.956;2024-02-26T13:30:33;4.23;;;3.50;;
16468;SDS011;8345;50.902;6.956;2024-02-26T13:33:06;5.07;;;3.30;;
16468;SDS011;8345;50.902;6.956;2024-02-26T13:35:34;4.57;;;3.60;;
16468;SDS011;8345;50.902;6.956;2024-02-26T13:38:01;4.17;;;3.27;;
16468;SDS011;8345;50.902;6.956;2024-02-26T13:40:29;3.57;;;3.27;;
16468;SDS011;8345;50.902;6.956;2024-02-26T13:42:56;3.90;;;3.40;;
16468;SDS011;8345;50.902;6.956;2024-02-26T13:45:25;4.50;;;3.70;;
16468;SDS011;8345;50.902;6.956;2024-02-26T13:47:52;3.70;;;3.40;;
16468;SDS011;8345;50.902;6.956;2024-02-26T13:50:19;3.70;;;3.23;;
16468;SDS011;8345;50.902;6.956;2024-02-26T13:52:48;3.23;;;2.93;;
16468;SDS011;8345;50.902;6.956;2024-02-26T13:55:18;3.93;;;3.43;;
16468;SDS011;8345;50.902;6.956;2024-02-26T13:57:47;5.10;;;3.33;;
16468;SDS011;8345;50.902;6.956;2024-02-26T14:00:17;4.57;;;3.63;;
16468;SDS011;8345;50.902;6.956;2024-02-26T14:02:45;3.77;;;3.47;;
16468;SDS011;8345;50.902;6.956;2024-02-26T14:05:13;3.90;;;3.27;;
16468;SDS011;8345;50.902;6.956;2024-02-26T14:07:40;5.40;;;3.90;;
16468;SDS011;8345;50.902;6.956;2024-02-26T14:10:07;4.47;;;3.50;;
16468;SDS011;8345;50.902;6.956;2024-02-26T14:12:35;5.17;;;4.00;;
16468;SDS011;8345;50.902;6.956;2024-02-26T14:15:04;4.90;;;4.03;;
16468;SDS011;8345;50.902;6.956;2024-02-26T14:17:32;4.97;;;3.60;;
16468;SDS011;8345;50.902;6.956;2024-02-26T14:20:00;4.37;;;3.97;;
16468;SDS011;8345;50.902;6.956;2024-02-26T14:22:28;5.20;;;4.00;;
16468;SDS011;8345;50.902;6.956;2024-02-26T14:24:56;4.17;;;3.73;;
16468;SDS011;8345;50.902;6.956;2024-02-26T14:27:24;4.20;;;3.80;;
16468;SDS011;8345;50.902;6.956;2024-02-26T14:29:52;4.57;;;4.07;;
16468;SDS011;8345;50.902;6.956;2024-02-26T14:32:20;4.67;;;3.93;;
16468;SDS011;8345;50.902;6.956;2024-02-26T14:34:47;4.97;;;4.10;;
16468;SDS011;8345;50.902;6.956;2024-02-26T14:37:16;5.30;;;4.77;;
16468;SDS011;8345;50.902;6.956;2024-02-26T14:39:43;5.00;;;4.43;;
16468;SDS011;8345;50.902;6.956;2024-02-26T14:42:12;5.20;;;4.70;;
16468;SDS011;8345;50.902;6.956;2024-02-26T14:44:42;5.33;;;4.83;;
16468;SDS011;8345;50.902;6.956;2024-02-26T14:47:11;5.07;;;4.60;;
16468;SDS011;8345;50.902;6.956;2024-02-26T14:49:38;6.87;;;4.47;;
16468;SDS011;8345;50.902;6.956;2024-02-26T14:52:05;6.43;;;5.30;;
16468;SDS011;8345;50.902;6.956;2024-02-26T14:54:34;5.43;;;4.93;;
16468;SDS011;8345;50.902;6.956;2024-02-26T14:57:04;5.90;;;4.67;;
16468;SDS011;8345;50.902;6.956;2024-02-26T14:59:31;5.27;;;4.47;;
16468;SDS011;8345;50.902;6.956;2024-02-26T15:01:59;7.20;;;4.97;;
16468;SDS011;8345;50.902;6.956;2024-02-26T15:04:26;6.13;;;5.00;;
16468;SDS011;8345;50.902;6.956;2024-02-26T15:06:53;5.67;;;4.70;;
16468;SDS011;8345;50.902;6.956;2024-02-26T15:09:20;6.53;;;5.00;;